sensor_id;sensor_type;location;lat;lon;timestamp;P1;durP1;ratioP1;P2;durP2;ratioP2
47113;SDS011;32867;51.556;6.832;2023-05-07T00:01:21;8.38;;;7.43;;
47113;SDS011;32867;51.556;6.832;2023-05-07T00:06:22;8.68;;;6.88;;
47113;SDS011;32867;51.556;6.832;2023-05-07T00:11:22;8.45;;;7.03;;
47113;SDS011;32867;51.556;6.832;2023-05-07T00:16:23;9.25;;;7.47;;
47113;SDS011;32867;51.556;6.832;2023-05-07T00:21:24;9.23;;;7.25;;
47113;SDS011;32867;51.556;6.832;2023-05-07T00:26:26;8.02;;;6.32;;
47113;SDS011;32867;51.556;6.832;2023-05-07T00:31:28;8.00;;;7.00;;
47113;SDS011;32867;51.556;6.832;2023-05-07T00:36:29;8.00;;;7.20;;
47113;SDS011;32867;51.556;6.832;2023-05-07T00:41:50;10.02;;;7.45;;
47113;SDS011;32867;51.556;6.832;2023-05-07T00:46:51;8.77;;;7.88;;
47113;SDS011;32867;51.556;6.832;2023-05-07T00:51:55;7.53;;;6.35;;
47113;SDS011;32867;51.556;6.832;2023-05-07T00:56:57;8.15;;;7.35;;
47113;SDS011;32867;51.556;6.832;2023-05-07T01:02:00;8.02;;;7.22;;
47113;SDS011;32867;51.556;6.832;2023-05-07T01:07:01;9.55;;;8.00;;
47113;SDS011;32867;51.556;6.832;2023-05-07T01:12:02;10.45;;;8.13;;
47113;SDS011;32867;51.556;6.832;2023-05-07T01:17:03;9.40;;;8.30;;
47113;SDS011;32867;51.556;6.832;2023-05-07T01:22:07;10.98;;;9.88;;
47113;SDS011;32867;51.556;6.832;2023-05-07T01:27:18;8.60;;;7.70;;
47113;SDS011;32867;51.556;6.832;2023-05-07T01:32:23;10.80;;;7.85;;
47113;SDS011;32867;51.556;6.832;2023-05-07T01:37:29;12.65;;;11.40;;
47113;SDS011;32867;51.556;6.832;2023-05-07T01:42:30;11.95;;;10.65;;
47113;SDS011;32867;51.556;6.832;2023-05-07T01:47:32;10.32;;;9.23;;
47113;SDS011;32867;51.556;6.832;2023-05-07T01:52:33;11.85;;;10.65;;
47113;SDS011;32867;51.556;6.832;2023-05-07T01:57:34;12.80;;;11.15;;
47113;SDS011;32867;51.556;6.832;2023-05-07T02:02:37;11.77;;;10.00;;
47113;SDS011;32867;51.556;6.832;2023-05-07T02:07:41;14.43;;;12.83;;
47113;SDS011;32867;51.556;6.832;2023-05-07T02:12:43;12.13;;;10.68;;
47113;SDS011;32867;51.556;6.832;2023-05-07T02:18:03;12.90;;;11.25;;
47113;SDS011;32867;51.556;6.832;2023-05-07T02:23:09;16.73;;;14.15;;
47113;SDS011;32867;51.556;6.832;2023-05-07T02:28:10;11.50;;;10.07;;
47113;SDS011;32867;51.556;6.832;2023-05-07T02:33:21;12.70;;;11.43;;
47113;SDS011;32867;51.556;6.832;2023-05-07T02:38:22;11.80;;;10.57;;
47113;SDS011;32867;51.556;6.832;2023-05-07T02:43:23;12.55;;;11.23;;
47113;SDS011;32867;51.556;6.832;2023-05-07T02:48:24;11.52;;;9.88;;
47113;SDS011;32867;51.556;6.832;2023-05-07T02:53:25;13.25;;;11.82;;
47113;SDS011;32867;51.556;6.832;2023-05-07T02:58:28;12.02;;;10.13;;
47113;SDS011;32867;51.556;6.832;2023-05-07T03:03:28;13.40;;;11.02;;
47113;SDS011;32867;51.556;6.832;2023-05-07T03:08:29;12.10;;;10.82;;
47113;SDS011;32867;51.556;6.832;2023-05-07T03:13:31;13.13;;;11.73;;
47113;SDS011;32867;51.556;6.832;2023-05-07T03:18:32;13.02;;;11.32;;
47113;SDS011;32867;51.556;6.832;2023-05-07T03:23:32;13.52;;;12.13;;
47113;SDS011;32867;51.556;6.832;2023-05-07T03:28:33;13.52;;;12.15;;
47113;SDS011;32867;51.556;6.832;2023-05-07T03:33:47;11.73;;;10.57;;
47113;SDS011;32867;51.556;6.832;2023-05-07T03:38:57;13.60;;;12.02;;
47113;SDS011;32867;51.556;6.832;2023-05-07T03:44:02;18.75;;;16.15;;
47113;SDS011;32867;51.556;6.832;2023-05-07T03:49:03;12.93;;;11.00;;
47113;SDS011;32867;51.556;6.832;2023-05-07T03:54:04;16.67;;;14.70;;
47113;SDS011;32867;51.556;6.832;2023-05-07T03:59:06;17.30;;;15.15;;
47113;SDS011;32867;51.556;6.832;2023-05-07T04:04:08;16.58;;;13.02;;
47113;SDS011;32867;51.556;6.832;2023-05-07T04:09:10;14.70;;;12.00;;
47113;SDS011;32867;51.556;6.832;2023-05-07T04:14:12;17.15;;;14.57;;
47113;SDS011;32867;51.556;6.832;2023-05-07T04:19:13;20.02;;;17.33;;
47113;SDS011;32867;51.556;6.832;2023-05-07T04:24:14;16.52;;;14.52;;
47113;SDS011;32867;51.556;6.832;2023-05-07T04:29:15;14.77;;;12.75;;
47113;SDS011;32867;51.556;6.832;2023-05-07T04:34:17;14.02;;;11.57;;
47113;SDS011;32867;51.556;6.832;2023-05-07T04:39:18;14.13;;;12.73;;
47113;SDS011;32867;51.556;6.832;2023-05-07T04:44:22;14.35;;;11.80;;
47113;SDS011;32867;51.556;6.832;2023-05-07T04:49:23;12.82;;;10.88;;
47113;SDS011;32867;51.556;6.832;2023-05-07T04:54:26;15.13;;;13.50;;
47113;SDS011;32867;51.556;6.832;2023-05-07T04:59:27;16.98;;;13.95;;
47113;SDS011;32867;51.556;6.832;2023-05-07T05:04:28;16.25;;;14.55;;
47113;SDS011;32867;51.556;6.832;2023-05-07T05:09:30;14.20;;;12.35;;
47113;SDS011;32867;51.556;6.832;2023-05-07T05:14:31;15.52;;;12.77;;
47113;SDS011;32867;51.556;6.832;2023-05-07T05:19:33;15.50;;;12.95;;
47113;SDS011;32867;51.556;6.832;2023-05-07T05:24:34;15.30;;;12.70;;
47113;SDS011;32867;51.556;6.832;2023-05-07T05:29:35;13.95;;;11.18;;
47113;SDS011;32867;51.556;6.832;2023-05-07T05:34:36;18.35;;;16.00;;
47113;SDS011;32867;51.556;6.832;2023-05-07T05:39:39;16.95;;;13.68;;
47113;SDS011;32867;51.556;6.832;2023-05-07T05:44:42;16.35;;;13.20;;
47113;SDS011;32867;51.556;6.832;2023-05-07T05:49:43;18.02;;;14.18;;
47113;SDS011;32867;51.556;6.832;2023-05-07T05:54:46;15.52;;;12.45;;
47113;SDS011;32867;51.556;6.832;2023-05-07T05:59:47;14.20;;;11.52;;
47113;SDS011;32867;51.556;6.832;2023-05-07T06:04:48;11.63;;;10.20;;
47113;SDS011;32867;51.556;6.832;2023-05-07T06:09:52;10.88;;;9.73;;
47113;SDS011;32867;51.556;6.832;2023-05-07T06:14:54;15.35;;;12.07;;
47113;SDS011;32867;51.556;6.832;2023-05-07T06:19:55;10.13;;;8.85;;
47113;SDS011;32867;51.556;6.832;2023-05-07T06:24:56;9.20;;;8.02;;
47113;SDS011;32867;51.556;6.832;2023-05-07T06:29:57;8.75;;;5.68;;
47113;SDS011;32867;51.556;6.832;2023-05-07T06:34:58;11.15;;;8.68;;
47113;SDS011;32867;51.556;6.832;2023-05-07T06:39:59;13.40;;;9.20;;
47113;SDS011;32867;51.556;6.832;2023-05-07T06:45:01;9.52;;;6.72;;
47113;SDS011;32867;51.556;6.832;2023-05-07T06:50:04;8.18;;;6.53;;
47113;SDS011;32867;51.556;6.832;2023-05-07T06:55:07;9.00;;;7.25;;
47113;SDS011;32867;51.556;6.832;2023-05-07T07:00:08;7.32;;;5.30;;
47113;SDS011;32867;51.556;6.832;2023-05-07T07:05:17;6.65;;;4.30;;
47113;SDS011;32867;51.556;6.832;2023-05-07T07:10:19;8.15;;;5.40;;
47113;SDS011;32867;51.556;6.832;2023-05-07T07:15:20;6.28;;;4.47;;
47113;SDS011;32867;51.556;6.832;2023-05-07T07:20:23;5.68;;;4.35;;
47113;SDS011;32867;51.556;6.832;2023-05-07T07:25:24;8.88;;;4.82;;
47113;SDS011;32867;51.556;6.832;2023-05-07T07:30:25;6.35;;;4.05;;
47113;SDS011;32867;51.556;6.832;2023-05-07T07:35:26;4.30;;;3.40;;
47113;SDS011;32867;51.556;6.832;2023-05-07T07:40:27;9.18;;;4.45;;
47113;SDS011;32867;51.556;6.832;2023-05-07T07:45:28;5.32;;;4.03;;
47113;SDS011;32867;51.556;6.832;2023-05-07T07:50:29;6.05;;;4.55;;
47113;SDS011;32867;51.556;6.832;2023-05-07T07:55:30;5.32;;;3.17;;
47113;SDS011;32867;51.556;6.832;2023-05-07T08:00:32;5.97;;;3.83;;
47113;SDS011;32867;51.556;6.832;2023-05-07T08:05:33;4.95;;;3.00;;
47113;SDS011;32867;51.556;6.832;2023-05-07T08:10:34;5.90;;;3.08;;
47113;SDS011;32867;51.556;6.832;2023-05-07T08:15:42;5.38;;;2.85;;
47113;SDS011;32867;51.556;6.832;2023-05-07T08:20:44;3.50;;;2.38;;
47113;SDS011;32867;51.556;6.832;2023-05-07T08:25:49;8.18;;;3.05;;
47113;SDS011;32867;51.556;6.832;2023-05-07T08:30:52;4.10;;;2.60;;
47113;SDS011;32867;51.556;6.832;2023-05-07T08:35:53;4.47;;;2.45;;
47113;SDS011;32867;51.556;6.832;2023-05-07T08:40:54;4.78;;;2.67;;
47113;SDS011;32867;51.556;6.832;2023-05-07T08:45:55;4.50;;;2.90;;
47113;SDS011;32867;51.556;6.832;2023-05-07T08:51:03;3.65;;;2.28;;
47113;SDS011;32867;51.556;6.832;2023-05-07T08:56:05;4.88;;;3.10;;
47113;SDS011;32867;51.556;6.832;2023-05-07T09:01:09;5.45;;;2.55;;
47113;SDS011;32867;51.556;6.832;2023-05-07T09:06:13;4.10;;;2.65;;
47113;SDS011;32867;51.556;6.832;2023-05-07T09:11:15;5.18;;;2.85;;
47113;SDS011;32867;51.556;6.832;2023-05-07T09:16:16;5.00;;;3.28;;
47113;SDS011;32867;51.556;6.832;2023-05-07T09:21:19;5.18;;;3.22;;
47113;SDS011;32867;51.556;6.832;2023-05-07T09:26:24;5.68;;;3.05;;
47113;SDS011;32867;51.556;6.832;2023-05-07T09:31:26;5.82;;;3.58;;
47113;SDS011;32867;51.556;6.832;2023-05-07T09:36:28;5.47;;;3.92;;
47113;SDS011;32867;51.556;6.832;2023-05-07T09:41:30;5.75;;;3.78;;
47113;SDS011;32867;51.556;6.832;2023-05-07T09:46:47;4.60;;;3.27;;
47113;SDS011;32867;51.556;6.832;2023-05-07T09:52:01;5.68;;;3.20;;
47113;SDS011;32867;51.556;6.832;2023-05-07T10:02:09;7.18;;;3.00;;
47113;SDS011;32867;51.556;6.832;2023-05-07T10:07:18;4.78;;;3.30;;
47113;SDS011;32867;51.556;6.832;2023-05-07T10:12:21;4.95;;;3.17;;
47113;SDS011;32867;51.556;6.832;2023-05-07T10:17:24;6.50;;;3.75;;
47113;SDS011;32867;51.556;6.832;2023-05-07T10:22:25;4.18;;;2.95;;
47113;SDS011;32867;51.556;6.832;2023-05-07T10:27:28;3.88;;;2.38;;
47113;SDS011;32867;51.556;6.832;2023-05-07T10:37:42;2.80;;;2.05;;
47113;SDS011;32867;51.556;6.832;2023-05-07T10:42:58;3.33;;;2.08;;
47113;SDS011;32867;51.556;6.832;2023-05-07T10:48:15;2.80;;;1.60;;
47113;SDS011;32867;51.556;6.832;2023-05-07T10:53:21;3.00;;;1.77;;
47113;SDS011;32867;51.556;6.832;2023-05-07T10:58:55;3.05;;;1.40;;
47113;SDS011;32867;51.556;6.832;2023-05-07T11:04:15;3.08;;;1.40;;
47113;SDS011;32867;51.556;6.832;2023-05-07T11:09:53;2.83;;;1.50;;
47113;SDS011;32867;51.556;6.832;2023-05-07T11:20:12;3.80;;;1.98;;
47113;SDS011;32867;51.556;6.832;2023-05-07T11:25:23;3.60;;;1.80;;
47113;SDS011;32867;51.556;6.832;2023-05-07T11:30:31;2.58;;;1.90;;
47113;SDS011;32867;51.556;6.832;2023-05-07T11:35:32;4.35;;;2.40;;
47113;SDS011;32867;51.556;6.832;2023-05-07T11:40:35;3.25;;;2.00;;
47113;SDS011;32867;51.556;6.832;2023-05-07T11:45:49;2.85;;;2.03;;
47113;SDS011;32867;51.556;6.832;2023-05-07T11:50:51;3.85;;;2.17;;
47113;SDS011;32867;51.556;6.832;2023-05-07T11:55:53;2.97;;;1.73;;
47113;SDS011;32867;51.556;6.832;2023-05-07T12:00:58;3.53;;;2.10;;
47113;SDS011;32867;51.556;6.832;2023-05-07T12:05:59;4.40;;;1.88;;
47113;SDS011;32867;51.556;6.832;2023-05-07T12:11:00;3.17;;;1.60;;
47113;SDS011;32867;51.556;6.832;2023-05-07T12:16:00;3.10;;;1.80;;
47113;SDS011;32867;51.556;6.832;2023-05-07T12:21:04;3.72;;;1.70;;
47113;SDS011;32867;51.556;6.832;2023-05-07T12:26:05;3.42;;;1.70;;
47113;SDS011;32867;51.556;6.832;2023-05-07T12:31:06;3.22;;;1.90;;
47113;SDS011;32867;51.556;6.832;2023-05-07T12:36:07;3.35;;;1.50;;
47113;SDS011;32867;51.556;6.832;2023-05-07T12:41:10;3.22;;;1.55;;
47113;SDS011;32867;51.556;6.832;2023-05-07T12:46:12;3.35;;;1.90;;
47113;SDS011;32867;51.556;6.832;2023-05-07T12:51:18;4.15;;;2.47;;
47113;SDS011;32867;51.556;6.832;2023-05-07T12:56:19;2.65;;;1.90;;
47113;SDS011;32867;51.556;6.832;2023-05-07T13:01:20;3.08;;;1.92;;
47113;SDS011;32867;51.556;6.832;2023-05-07T13:06:21;3.83;;;2.10;;
47113;SDS011;32867;51.556;6.832;2023-05-07T13:11:22;3.60;;;2.65;;
47113;SDS011;32867;51.556;6.832;2023-05-07T13:16:23;4.55;;;2.75;;
47113;SDS011;32867;51.556;6.832;2023-05-07T13:21:24;5.88;;;2.95;;
47113;SDS011;32867;51.556;6.832;2023-05-07T13:26:25;5.93;;;3.38;;
47113;SDS011;32867;51.556;6.832;2023-05-07T13:31:26;6.85;;;3.65;;
47113;SDS011;32867;51.556;6.832;2023-05-07T13:36:29;5.30;;;3.45;;
47113;SDS011;32867;51.556;6.832;2023-05-07T13:41:33;7.03;;;3.55;;
47113;SDS011;32867;51.556;6.832;2023-05-07T13:46:33;5.38;;;3.90;;
47113;SDS011;32867;51.556;6.832;2023-05-07T13:51:34;6.22;;;3.42;;
47113;SDS011;32867;51.556;6.832;2023-05-07T13:56:35;6.40;;;3.85;;
47113;SDS011;32867;51.556;6.832;2023-05-07T14:01:37;6.10;;;4.15;;
47113;SDS011;32867;51.556;6.832;2023-05-07T14:06:38;5.90;;;4.78;;
47113;SDS011;32867;51.556;6.832;2023-05-07T14:11:41;6.88;;;5.40;;
47113;SDS011;32867;51.556;6.832;2023-05-07T14:16:42;8.00;;;4.90;;
47113;SDS011;32867;51.556;6.832;2023-05-07T14:21:45;7.13;;;4.35;;
47113;SDS011;32867;51.556;6.832;2023-05-07T14:26:46;6.47;;;4.70;;
47113;SDS011;32867;51.556;6.832;2023-05-07T14:31:46;6.57;;;4.60;;
47113;SDS011;32867;51.556;6.832;2023-05-07T14:36:48;9.48;;;5.28;;
47113;SDS011;32867;51.556;6.832;2023-05-07T14:41:49;6.97;;;4.85;;
47113;SDS011;32867;51.556;6.832;2023-05-07T14:46:50;9.82;;;7.13;;
47113;SDS011;32867;51.556;6.832;2023-05-07T14:51:51;6.88;;;5.68;;
47113;SDS011;32867;51.556;6.832;2023-05-07T14:56:52;8.73;;;6.90;;
47113;SDS011;32867;51.556;6.832;2023-05-07T15:01:53;10.13;;;8.27;;
47113;SDS011;32867;51.556;6.832;2023-05-07T15:06:54;12.00;;;7.88;;
47113;SDS011;32867;51.556;6.832;2023-05-07T15:11:56;9.70;;;7.75;;
47113;SDS011;32867;51.556;6.832;2023-05-07T15:16:56;9.27;;;6.72;;
47113;SDS011;32867;51.556;6.832;2023-05-07T15:21:57;9.00;;;6.95;;
47113;SDS011;32867;51.556;6.832;2023-05-07T15:27:06;8.85;;;6.20;;
47113;SDS011;32867;51.556;6.832;2023-05-07T15:32:08;7.10;;;5.78;;
47113;SDS011;32867;51.556;6.832;2023-05-07T15:37:10;8.20;;;5.55;;
47113;SDS011;32867;51.556;6.832;2023-05-07T15:42:11;6.13;;;5.10;;
47113;SDS011;32867;51.556;6.832;2023-05-07T15:47:13;7.32;;;5.03;;
47113;SDS011;32867;51.556;6.832;2023-05-07T15:52:15;7.43;;;5.00;;
47113;SDS011;32867;51.556;6.832;2023-05-07T15:57:17;6.82;;;5.45;;
47113;SDS011;32867;51.556;6.832;2023-05-07T16:02:17;5.70;;;4.63;;
47113;SDS011;32867;51.556;6.832;2023-05-07T16:07:18;6.28;;;4.60;;
47113;SDS011;32867;51.556;6.832;2023-05-07T16:12:19;10.00;;;4.75;;
47113;SDS011;32867;51.556;6.832;2023-05-07T16:17:20;5.90;;;4.72;;
47113;SDS011;32867;51.556;6.832;2023-05-07T16:22:21;9.75;;;6.13;;
47113;SDS011;32867;51.556;6.832;2023-05-07T17:00:38;8.52;;;6.25;;
47113;SDS011;32867;51.556;6.832;2023-05-07T17:05:39;6.30;;;5.32;;
47113;SDS011;32867;51.556;6.832;2023-05-07T17:10:40;7.65;;;5.65;;
47113;SDS011;32867;51.556;6.832;2023-05-07T17:15:41;5.90;;;5.15;;
47113;SDS011;32867;51.556;6.832;2023-05-07T17:20:44;9.20;;;8.23;;
47113;SDS011;32867;51.556;6.832;2023-05-07T17:25:44;11.82;;;9.75;;
47113;SDS011;32867;51.556;6.832;2023-05-07T17:30:45;10.25;;;8.40;;
47113;SDS011;32867;51.556;6.832;2023-05-07T17:35:47;8.63;;;7.72;;
47113;SDS011;32867;51.556;6.832;2023-05-07T17:40:48;8.68;;;6.38;;
47113;SDS011;32867;51.556;6.832;2023-05-07T17:45:49;7.40;;;5.90;;
47113;SDS011;32867;51.556;6.832;2023-05-07T17:50:50;13.85;;;10.45;;
47113;SDS011;32867;51.556;6.832;2023-05-07T17:55:51;10.98;;;9.63;;
47113;SDS011;32867;51.556;6.832;2023-05-07T18:00:52;10.23;;;7.50;;
47113;SDS011;32867;51.556;6.832;2023-05-07T18:05:54;6.95;;;5.43;;
47113;SDS011;32867;51.556;6.832;2023-05-07T18:10:55;6.95;;;5.55;;
47113;SDS011;32867;51.556;6.832;2023-05-07T18:15:55;7.30;;;5.70;;
47113;SDS011;32867;51.556;6.832;2023-05-07T18:20:56;7.28;;;5.75;;
47113;SDS011;32867;51.556;6.832;2023-05-07T18:25:57;7.22;;;5.75;;
47113;SDS011;32867;51.556;6.832;2023-05-07T18:31:01;6.30;;;5.45;;
47113;SDS011;32867;51.556;6.832;2023-05-07T18:36:01;8.07;;;5.57;;
47113;SDS011;32867;51.556;6.832;2023-05-07T18:41:02;7.35;;;5.70;;
47113;SDS011;32867;51.556;6.832;2023-05-07T18:46:04;8.52;;;5.70;;
47113;SDS011;32867;51.556;6.832;2023-05-07T18:51:05;7.28;;;5.88;;
47113;SDS011;32867;51.556;6.832;2023-05-07T18:56:07;7.75;;;6.22;;
47113;SDS011;32867;51.556;6.832;2023-05-07T19:01:08;10.75;;;6.20;;
47113;SDS011;32867;51.556;6.832;2023-05-07T19:06:09;7.53;;;5.80;;
47113;SDS011;32867;51.556;6.832;2023-05-07T19:11:10;9.60;;;6.38;;
47113;SDS011;32867;51.556;6.832;2023-05-07T19:16:11;6.65;;;5.55;;
47113;SDS011;32867;51.556;6.832;2023-05-07T19:21:12;7.43;;;6.45;;
47113;SDS011;32867;51.556;6.832;2023-05-07T19:26:13;8.02;;;6.28;;
47113;SDS011;32867;51.556;6.832;2023-05-07T19:31:20;8.98;;;6.95;;
47113;SDS011;32867;51.556;6.832;2023-05-07T19:36:21;8.90;;;6.22;;
47113;SDS011;32867;51.556;6.832;2023-05-07T19:41:22;8.02;;;6.88;;
47113;SDS011;32867;51.556;6.832;2023-05-07T19:46:23;7.38;;;6.45;;
47113;SDS011;32867;51.556;6.832;2023-05-07T19:51:23;8.68;;;7.15;;
47113;SDS011;32867;51.556;6.832;2023-05-07T19:56:24;8.38;;;6.45;;
47113;SDS011;32867;51.556;6.832;2023-05-07T20:01:26;8.35;;;6.65;;
47113;SDS011;32867;51.556;6.832;2023-05-07T20:06:27;8.10;;;6.78;;
47113;SDS011;32867;51.556;6.832;2023-05-07T20:11:28;8.43;;;7.53;;
47113;SDS011;32867;51.556;6.832;2023-05-07T20:16:31;8.10;;;6.82;;
47113;SDS011;32867;51.556;6.832;2023-05-07T20:21:32;8.40;;;7.20;;
47113;SDS011;32867;51.556;6.832;2023-05-07T20:26:33;7.88;;;6.78;;
47113;SDS011;32867;51.556;6.832;2023-05-07T20:31:33;9.05;;;7.68;;
47113;SDS011;32867;51.556;6.832;2023-05-07T20:36:34;8.48;;;7.28;;
47113;SDS011;32867;51.556;6.832;2023-05-07T20:41:35;7.97;;;6.78;;
47113;SDS011;32867;51.556;6.832;2023-05-07T20:46:36;7.70;;;6.75;;
47113;SDS011;32867;51.556;6.832;2023-05-07T20:51:37;9.60;;;6.95;;
47113;SDS011;32867;51.556;6.832;2023-05-07T20:56:38;7.03;;;6.07;;
47113;SDS011;32867;51.556;6.832;2023-05-07T21:01:38;8.43;;;7.53;;
47113;SDS011;32867;51.556;6.832;2023-05-07T21:06:41;8.98;;;7.65;;
47113;SDS011;32867;51.556;6.832;2023-05-07T21:11:42;9.02;;;7.30;;
47113;SDS011;32867;51.556;6.832;2023-05-07T21:16:43;8.73;;;7.60;;
47113;SDS011;32867;51.556;6.832;2023-05-07T21:21:44;8.73;;;7.40;;
47113;SDS011;32867;51.556;6.832;2023-05-07T21:26:44;9.15;;;8.07;;
47113;SDS011;32867;51.556;6.832;2023-05-07T21:31:45;9.07;;;7.97;;
47113;SDS011;32867;51.556;6.832;2023-05-07T21:36:45;8.57;;;7.30;;
47113;SDS011;32867;51.556;6.832;2023-05-07T21:41:46;8.30;;;6.78;;
47113;SDS011;32867;51.556;6.832;2023-05-07T21:46:47;9.38;;;8.43;;
47113;SDS011;32867;51.556;6.832;2023-05-07T21:51:48;11.05;;;9.13;;
47113;SDS011;32867;51.556;6.832;2023-05-07T21:56:48;9.63;;;8.63;;
47113;SDS011;32867;51.556;6.832;2023-05-07T22:01:49;11.32;;;8.68;;
47113;SDS011;32867;51.556;6.832;2023-05-07T22:06:49;10.60;;;9.50;;
47113;SDS011;32867;51.556;6.832;2023-05-07T22:11:50;12.27;;;10.82;;
47113;SDS011;32867;51.556;6.832;2023-05-07T22:16:51;11.73;;;10.52;;
47113;SDS011;32867;51.556;6.832;2023-05-07T22:21:52;13.15;;;11.65;;
47113;SDS011;32867;51.556;6.832;2023-05-07T22:26:52;13.18;;;10.85;;
47113;SDS011;32867;51.556;6.832;2023-05-07T22:31:53;12.95;;;10.57;;
47113;SDS011;32867;51.556;6.832;2023-05-07T22:36:54;12.48;;;10.05;;
47113;SDS011;32867;51.556;6.832;2023-05-07T22:41:54;11.48;;;10.23;;
47113;SDS011;32867;51.556;6.832;2023-05-07T22:46:55;12.20;;;10.95;;
47113;SDS011;32867;51.556;6.832;2023-05-07T22:51:56;12.98;;;11.23;;
47113;SDS011;32867;51.556;6.832;2023-05-07T22:56:56;12.77;;;11.48;;
47113;SDS011;32867;51.556;6.832;2023-05-07T23:01:58;12.10;;;10.85;;
47113;SDS011;32867;51.556;6.832;2023-05-07T23:06:59;12.55;;;11.23;;
47113;SDS011;32867;51.556;6.832;2023-05-07T23:11:59;12.00;;;10.50;;
47113;SDS011;32867;51.556;6.832;2023-05-07T23:17:00;12.25;;;10.95;;
47113;SDS011;32867;51.556;6.832;2023-05-07T23:22:01;14.15;;;12.50;;
47113;SDS011;32867;51.556;6.832;2023-05-07T23:27:05;12.70;;;10.63;;
47113;SDS011;32867;51.556;6.832;2023-05-07T23:32:06;14.88;;;12.32;;
47113;SDS011;32867;51.556;6.832;2023-05-07T23:37:07;11.80;;;10.60;;
47113;SDS011;32867;51.556;6.832;2023-05-07T23:42:09;13.02;;;11.48;;
47113;SDS011;32867;51.556;6.832;2023-05-07T23:47:10;11.63;;;10.43;;
47113;SDS011;32867;51.556;6.832;2023-05-07T23:52:10;12.77;;;11.30;;
47113;SDS011;32867;51.556;6.832;2023-05-07T23:57:11;14.35;;;12.07;;
